sensor_id;sensor_type;location;lat;lon;timestamp;P1;durP1;ratioP1;P2;durP2;ratioP2
16296;SDS011;8256;56.144;13.394;2022-11-13T00:00:27;2.20;;;0.90;;
16296;SDS011;8256;56.144;13.394;2022-11-13T00:03:12;1.97;;;0.63;;
16296;SDS011;8256;56.144;13.394;2022-11-13T00:05:59;2.92;;;0.50;;
16296;SDS011;8256;56.144;13.394;2022-11-13T00:08:51;2.45;;;0.50;;
16296;SDS011;8256;56.144;13.394;2022-11-13T00:11:38;2.08;;;0.55;;
16296;SDS011;8256;56.144;13.394;2022-11-13T00:14:23;1.83;;;0.32;;
16296;SDS011;8256;56.144;13.394;2022-11-13T00:17:09;3.20;;;1.07;;
16296;SDS011;8256;56.144;13.394;2022-11-13T00:19:55;2.35;;;0.45;;
16296;SDS011;8256;56.144;13.394;2022-11-13T00:22:40;1.75;;;0.50;;
16296;SDS011;8256;56.144;13.394;2022-11-13T00:25:26;1.83;;;0.50;;
16296;SDS011;8256;56.144;13.394;2022-11-13T00:28:12;1.77;;;0.60;;
16296;SDS011;8256;56.144;13.394;2022-11-13T00:31:01;1.47;;;0.33;;
16296;SDS011;8256;56.144;13.394;2022-11-13T00:33:49;2.90;;;0.73;;
16296;SDS011;8256;56.144;13.394;2022-11-13T00:36:34;2.22;;;0.63;;
16296;SDS011;8256;56.144;13.394;2022-11-13T00:39:20;1.90;;;0.60;;
16296;SDS011;8256;56.144;13.394;2022-11-13T00:42:06;2.30;;;0.80;;
16296;SDS011;8256;56.144;13.394;2022-11-13T00:44:51;1.87;;;0.50;;
16296;SDS011;8256;56.144;13.394;2022-11-13T00:47:37;1.52;;;0.35;;
16296;SDS011;8256;56.144;13.394;2022-11-13T00:50:23;1.55;;;0.57;;
16296;SDS011;8256;56.144;13.394;2022-11-13T00:53:08;2.28;;;0.52;;
16296;SDS011;8256;56.144;13.394;2022-11-13T00:55:54;2.15;;;0.63;;
16296;SDS011;8256;56.144;13.394;2022-11-13T00:58:40;2.53;;;0.77;;
16296;SDS011;8256;56.144;13.394;2022-11-13T01:01:25;2.72;;;0.65;;
16296;SDS011;8256;56.144;13.394;2022-11-13T01:04:11;2.75;;;0.80;;
16296;SDS011;8256;56.144;13.394;2022-11-13T01:06:57;2.65;;;0.82;;
16296;SDS011;8256;56.144;13.394;2022-11-13T01:09:42;2.20;;;0.85;;
16296;SDS011;8256;56.144;13.394;2022-11-13T01:12:28;1.77;;;0.50;;
16296;SDS011;8256;56.144;13.394;2022-11-13T01:15:14;1.38;;;0.47;;
16296;SDS011;8256;56.144;13.394;2022-11-13T01:17:59;1.23;;;0.40;;
16296;SDS011;8256;56.144;13.394;2022-11-13T01:20:45;1.55;;;0.38;;
16296;SDS011;8256;56.144;13.394;2022-11-13T01:23:31;2.67;;;0.30;;
16296;SDS011;8256;56.144;13.394;2022-11-13T01:26:21;1.27;;;0.30;;
16296;SDS011;8256;56.144;13.394;2022-11-13T01:29:08;2.70;;;0.65;;
16296;SDS011;8256;56.144;13.394;2022-11-13T01:31:54;3.63;;;1.20;;
16296;SDS011;8256;56.144;13.394;2022-11-13T01:34:40;2.17;;;0.80;;
16296;SDS011;8256;56.144;13.394;2022-11-13T01:37:25;1.67;;;0.50;;
16296;SDS011;8256;56.144;13.394;2022-11-13T01:40:11;1.77;;;0.50;;
16296;SDS011;8256;56.144;13.394;2022-11-13T01:42:57;1.88;;;0.45;;
16296;SDS011;8256;56.144;13.394;2022-11-13T01:48:46;2.25;;;0.95;;
16296;SDS011;8256;56.144;13.394;2022-11-13T01:51:39;2.03;;;0.68;;
16296;SDS011;8256;56.144;13.394;2022-11-13T01:54:29;2.47;;;0.73;;
16296;SDS011;8256;56.144;13.394;2022-11-13T01:57:23;2.67;;;0.73;;
16296;SDS011;8256;56.144;13.394;2022-11-13T02:00:10;2.83;;;0.93;;
16296;SDS011;8256;56.144;13.394;2022-11-13T02:02:56;5.25;;;1.77;;
16296;SDS011;8256;56.144;13.394;2022-11-13T02:05:41;1.92;;;0.77;;
16296;SDS011;8256;56.144;13.394;2022-11-13T02:08:27;2.07;;;0.83;;
16296;SDS011;8256;56.144;13.394;2022-11-13T02:11:13;2.53;;;0.85;;
16296;SDS011;8256;56.144;13.394;2022-11-13T02:13:59;3.38;;;0.98;;
16296;SDS011;8256;56.144;13.394;2022-11-13T02:16:45;1.33;;;0.43;;
16296;SDS011;8256;56.144;13.394;2022-11-13T02:19:34;1.48;;;0.50;;
16296;SDS011;8256;56.144;13.394;2022-11-13T02:22:25;2.10;;;0.83;;
16296;SDS011;8256;56.144;13.394;2022-11-13T02:25:15;2.65;;;1.10;;
16296;SDS011;8256;56.144;13.394;2022-11-13T02:28:01;2.78;;;0.93;;
16296;SDS011;8256;56.144;13.394;2022-11-13T02:30:46;9.35;;;0.95;;
16296;SDS011;8256;56.144;13.394;2022-11-13T02:33:32;2.72;;;1.10;;
16296;SDS011;8256;56.144;13.394;2022-11-13T02:36:19;3.40;;;0.90;;
16296;SDS011;8256;56.144;13.394;2022-11-13T02:39:07;1.90;;;0.65;;
16296;SDS011;8256;56.144;13.394;2022-11-13T02:41:54;2.28;;;0.73;;
16296;SDS011;8256;56.144;13.394;2022-11-13T02:44:40;1.67;;;0.77;;
16296;SDS011;8256;56.144;13.394;2022-11-13T02:47:26;2.00;;;0.73;;
16296;SDS011;8256;56.144;13.394;2022-11-13T02:50:12;2.17;;;0.67;;
16296;SDS011;8256;56.144;13.394;2022-11-13T02:52:58;2.30;;;0.63;;
16296;SDS011;8256;56.144;13.394;2022-11-13T02:55:44;1.80;;;0.80;;
16296;SDS011;8256;56.144;13.394;2022-11-13T02:58:29;1.00;;;0.43;;
16296;SDS011;8256;56.144;13.394;2022-11-13T03:01:15;3.65;;;1.25;;
16296;SDS011;8256;56.144;13.394;2022-11-13T03:04:01;1.77;;;0.40;;
16296;SDS011;8256;56.144;13.394;2022-11-13T03:06:47;1.75;;;0.63;;
16296;SDS011;8256;56.144;13.394;2022-11-13T03:09:32;3.58;;;1.17;;
16296;SDS011;8256;56.144;13.394;2022-11-13T03:12:18;2.60;;;0.88;;
16296;SDS011;8256;56.144;13.394;2022-11-13T03:15:04;2.38;;;0.95;;
16296;SDS011;8256;56.144;13.394;2022-11-13T03:17:51;2.43;;;0.83;;
16296;SDS011;8256;56.144;13.394;2022-11-13T03:20:38;2.83;;;1.15;;
16296;SDS011;8256;56.144;13.394;2022-11-13T03:23:25;3.53;;;0.95;;
16296;SDS011;8256;56.144;13.394;2022-11-13T03:26:13;1.95;;;0.63;;
16296;SDS011;8256;56.144;13.394;2022-11-13T03:29:00;3.42;;;1.27;;
16296;SDS011;8256;56.144;13.394;2022-11-13T03:31:46;2.10;;;0.70;;
16296;SDS011;8256;56.144;13.394;2022-11-13T03:34:31;2.03;;;0.75;;
16296;SDS011;8256;56.144;13.394;2022-11-13T03:37:17;1.80;;;0.52;;
16296;SDS011;8256;56.144;13.394;2022-11-13T03:40:03;2.40;;;1.02;;
16296;SDS011;8256;56.144;13.394;2022-11-13T03:42:49;3.75;;;1.52;;
16296;SDS011;8256;56.144;13.394;2022-11-13T03:45:34;2.13;;;0.87;;
16296;SDS011;8256;56.144;13.394;2022-11-13T03:48:20;2.78;;;0.80;;
16296;SDS011;8256;56.144;13.394;2022-11-13T03:51:06;2.17;;;0.93;;
16296;SDS011;8256;56.144;13.394;2022-11-13T03:53:52;1.45;;;0.50;;
16296;SDS011;8256;56.144;13.394;2022-11-13T03:56:38;3.05;;;1.42;;
16296;SDS011;8256;56.144;13.394;2022-11-13T03:59:24;2.20;;;1.00;;
16296;SDS011;8256;56.144;13.394;2022-11-13T04:02:10;3.28;;;1.55;;
16296;SDS011;8256;56.144;13.394;2022-11-13T04:04:55;1.98;;;0.70;;
16296;SDS011;8256;56.144;13.394;2022-11-13T04:07:41;4.20;;;0.82;;
16296;SDS011;8256;56.144;13.394;2022-11-13T04:10:27;3.30;;;1.45;;
16296;SDS011;8256;56.144;13.394;2022-11-13T04:13:13;2.07;;;0.83;;
16296;SDS011;8256;56.144;13.394;2022-11-13T04:15:58;2.55;;;1.10;;
16296;SDS011;8256;56.144;13.394;2022-11-13T04:18:44;2.40;;;1.00;;
16296;SDS011;8256;56.144;13.394;2022-11-13T04:21:30;1.92;;;0.70;;
16296;SDS011;8256;56.144;13.394;2022-11-13T04:24:15;2.22;;;0.85;;
16296;SDS011;8256;56.144;13.394;2022-11-13T04:27:01;3.10;;;0.97;;
16296;SDS011;8256;56.144;13.394;2022-11-13T04:29:46;2.63;;;0.73;;
16296;SDS011;8256;56.144;13.394;2022-11-13T04:32:32;2.65;;;1.30;;
16296;SDS011;8256;56.144;13.394;2022-11-13T04:35:18;2.50;;;1.08;;
16296;SDS011;8256;56.144;13.394;2022-11-13T04:38:03;2.08;;;0.70;;
16296;SDS011;8256;56.144;13.394;2022-11-13T04:40:49;3.10;;;1.27;;
16296;SDS011;8256;56.144;13.394;2022-11-13T04:43:56;3.72;;;1.35;;
16296;SDS011;8256;56.144;13.394;2022-11-13T04:46:41;3.45;;;1.30;;
16296;SDS011;8256;56.144;13.394;2022-11-13T04:49:27;1.80;;;0.60;;
16296;SDS011;8256;56.144;13.394;2022-11-13T04:52:13;2.75;;;1.17;;
16296;SDS011;8256;56.144;13.394;2022-11-13T04:54:58;3.43;;;0.97;;
16296;SDS011;8256;56.144;13.394;2022-11-13T04:57:44;3.22;;;0.90;;
16296;SDS011;8256;56.144;13.394;2022-11-13T05:00:30;2.88;;;1.05;;
16296;SDS011;8256;56.144;13.394;2022-11-13T05:03:15;1.63;;;0.45;;
16296;SDS011;8256;56.144;13.394;2022-11-13T05:06:05;3.25;;;1.00;;
16296;SDS011;8256;56.144;13.394;2022-11-13T05:08:52;2.53;;;0.90;;
16296;SDS011;8256;56.144;13.394;2022-11-13T05:11:37;1.92;;;0.60;;
16296;SDS011;8256;56.144;13.394;2022-11-13T05:14:23;2.38;;;0.75;;
16296;SDS011;8256;56.144;13.394;2022-11-13T05:17:09;3.40;;;1.23;;
16296;SDS011;8256;56.144;13.394;2022-11-13T05:19:55;3.72;;;1.63;;
16296;SDS011;8256;56.144;13.394;2022-11-13T05:22:41;1.50;;;0.57;;
16296;SDS011;8256;56.144;13.394;2022-11-13T05:25:27;2.15;;;0.63;;
16296;SDS011;8256;56.144;13.394;2022-11-13T05:28:13;2.85;;;1.05;;
16296;SDS011;8256;56.144;13.394;2022-11-13T05:31:08;6.45;;;1.42;;
16296;SDS011;8256;56.144;13.394;2022-11-13T05:33:55;3.00;;;1.08;;
16296;SDS011;8256;56.144;13.394;2022-11-13T05:36:41;3.17;;;1.57;;
16296;SDS011;8256;56.144;13.394;2022-11-13T05:39:26;1.77;;;0.50;;
16296;SDS011;8256;56.144;13.394;2022-11-13T05:42:12;2.72;;;0.82;;
16296;SDS011;8256;56.144;13.394;2022-11-13T05:44:58;2.85;;;0.82;;
16296;SDS011;8256;56.144;13.394;2022-11-13T05:47:43;2.75;;;0.77;;
16296;SDS011;8256;56.144;13.394;2022-11-13T05:50:29;3.97;;;1.60;;
16296;SDS011;8256;56.144;13.394;2022-11-13T05:53:14;2.53;;;0.93;;
16296;SDS011;8256;56.144;13.394;2022-11-13T05:56:01;2.03;;;0.70;;
16296;SDS011;8256;56.144;13.394;2022-11-13T05:58:51;2.40;;;0.73;;
16296;SDS011;8256;56.144;13.394;2022-11-13T06:01:38;2.75;;;0.88;;
16296;SDS011;8256;56.144;13.394;2022-11-13T06:04:24;1.63;;;0.50;;
16296;SDS011;8256;56.144;13.394;2022-11-13T06:07:10;2.80;;;1.30;;
16296;SDS011;8256;56.144;13.394;2022-11-13T06:09:55;3.60;;;1.20;;
16296;SDS011;8256;56.144;13.394;2022-11-13T06:12:41;2.55;;;0.80;;
16296;SDS011;8256;56.144;13.394;2022-11-13T06:15:27;3.00;;;0.63;;
16296;SDS011;8256;56.144;13.394;2022-11-13T06:18:12;2.10;;;0.93;;
16296;SDS011;8256;56.144;13.394;2022-11-13T06:21:02;2.22;;;0.85;;
16296;SDS011;8256;56.144;13.394;2022-11-13T06:23:49;2.88;;;1.08;;
16296;SDS011;8256;56.144;13.394;2022-11-13T06:26:35;1.92;;;0.43;;
16296;SDS011;8256;56.144;13.394;2022-11-13T06:29:21;3.22;;;1.42;;
16296;SDS011;8256;56.144;13.394;2022-11-13T06:32:06;2.53;;;0.90;;
16296;SDS011;8256;56.144;13.394;2022-11-13T06:34:52;1.77;;;0.60;;
16296;SDS011;8256;56.144;13.394;2022-11-13T06:37:38;1.75;;;0.47;;
16296;SDS011;8256;56.144;13.394;2022-11-13T06:40:23;2.72;;;0.77;;
16296;SDS011;8256;56.144;13.394;2022-11-13T06:43:09;2.28;;;1.23;;
16296;SDS011;8256;56.144;13.394;2022-11-13T06:45:55;2.07;;;0.73;;
16296;SDS011;8256;56.144;13.394;2022-11-13T06:48:41;2.47;;;1.08;;
16296;SDS011;8256;56.144;13.394;2022-11-13T06:51:27;2.40;;;0.68;;
16296;SDS011;8256;56.144;13.394;2022-11-13T06:54:14;2.13;;;0.68;;
16296;SDS011;8256;56.144;13.394;2022-11-13T06:57:00;2.00;;;0.85;;
16296;SDS011;8256;56.144;13.394;2022-11-13T06:59:45;2.50;;;0.60;;
16296;SDS011;8256;56.144;13.394;2022-11-13T07:02:31;2.45;;;0.90;;
16296;SDS011;8256;56.144;13.394;2022-11-13T07:05:17;1.98;;;0.47;;
16296;SDS011;8256;56.144;13.394;2022-11-13T07:08:02;1.65;;;0.40;;
16296;SDS011;8256;56.144;13.394;2022-11-13T07:10:52;1.33;;;0.30;;
16296;SDS011;8256;56.144;13.394;2022-11-13T07:13:39;3.40;;;1.30;;
16296;SDS011;8256;56.144;13.394;2022-11-13T07:16:25;2.33;;;0.60;;
16296;SDS011;8256;56.144;13.394;2022-11-13T07:19:11;2.28;;;1.05;;
16296;SDS011;8256;56.144;13.394;2022-11-13T07:21:56;1.75;;;0.68;;
16296;SDS011;8256;56.144;13.394;2022-11-13T07:24:42;2.33;;;0.93;;
16296;SDS011;8256;56.144;13.394;2022-11-13T07:27:28;0.93;;;0.20;;
16296;SDS011;8256;56.144;13.394;2022-11-13T07:30:13;1.77;;;0.73;;
16296;SDS011;8256;56.144;13.394;2022-11-13T07:33:02;2.00;;;0.65;;
16296;SDS011;8256;56.144;13.394;2022-11-13T07:35:48;2.40;;;0.63;;
16296;SDS011;8256;56.144;13.394;2022-11-13T07:38:34;2.33;;;0.82;;
16296;SDS011;8256;56.144;13.394;2022-11-13T07:41:20;0.80;;;0.20;;
16296;SDS011;8256;56.144;13.394;2022-11-13T07:44:05;0.75;;;0.20;;
16296;SDS011;8256;56.144;13.394;2022-11-13T07:46:51;1.83;;;0.60;;
16296;SDS011;8256;56.144;13.394;2022-11-13T07:49:37;1.80;;;0.55;;
16296;SDS011;8256;56.144;13.394;2022-11-13T07:52:22;1.83;;;0.47;;
16296;SDS011;8256;56.144;13.394;2022-11-13T07:55:08;1.37;;;0.27;;
16296;SDS011;8256;56.144;13.394;2022-11-13T07:57:57;0.93;;;0.20;;
16296;SDS011;8256;56.144;13.394;2022-11-13T08:00:43;1.20;;;0.30;;
16296;SDS011;8256;56.144;13.394;2022-11-13T08:03:29;1.63;;;0.40;;
16296;SDS011;8256;56.144;13.394;2022-11-13T08:06:15;0.82;;;0.20;;
16296;SDS011;8256;56.144;13.394;2022-11-13T08:09:01;0.63;;;0.10;;
16296;SDS011;8256;56.144;13.394;2022-11-13T08:11:46;0.50;;;0.10;;
16296;SDS011;8256;56.144;13.394;2022-11-13T08:14:32;0.63;;;0.10;;
16296;SDS011;8256;56.144;13.394;2022-11-13T08:17:18;0.50;;;0.10;;
16296;SDS011;8256;56.144;13.394;2022-11-13T08:20:04;1.40;;;0.30;;
16296;SDS011;8256;56.144;13.394;2022-11-13T08:22:50;0.90;;;0.20;;
16296;SDS011;8256;56.144;13.394;2022-11-13T08:25:36;0.55;;;0.13;;
16296;SDS011;8256;56.144;13.394;2022-11-13T08:28:22;1.23;;;0.38;;
16296;SDS011;8256;56.144;13.394;2022-11-13T08:31:11;1.02;;;0.20;;
16296;SDS011;8256;56.144;13.394;2022-11-13T08:33:58;0.98;;;0.20;;
16296;SDS011;8256;56.144;13.394;2022-11-13T08:36:44;0.80;;;0.17;;
16296;SDS011;8256;56.144;13.394;2022-11-13T08:39:32;1.20;;;0.30;;
16296;SDS011;8256;56.144;13.394;2022-11-13T08:42:19;1.38;;;0.38;;
16296;SDS011;8256;56.144;13.394;2022-11-13T08:45:05;1.77;;;0.43;;
16296;SDS011;8256;56.144;13.394;2022-11-13T08:47:51;1.60;;;0.52;;
16296;SDS011;8256;56.144;13.394;2022-11-13T08:50:37;3.17;;;1.37;;
16296;SDS011;8256;56.144;13.394;2022-11-13T08:53:24;1.13;;;0.30;;
16296;SDS011;8256;56.144;13.394;2022-11-13T08:56:09;1.30;;;0.43;;
16296;SDS011;8256;56.144;13.394;2022-11-13T08:58:55;1.00;;;0.20;;
16296;SDS011;8256;56.144;13.394;2022-11-13T09:01:41;1.38;;;0.32;;
16296;SDS011;8256;56.144;13.394;2022-11-13T09:04:27;0.90;;;0.27;;
16296;SDS011;8256;56.144;13.394;2022-11-13T09:07:12;1.73;;;0.70;;
16296;SDS011;8256;56.144;13.394;2022-11-13T09:09:58;1.88;;;0.50;;
16296;SDS011;8256;56.144;13.394;2022-11-13T09:12:44;1.88;;;0.40;;
16296;SDS011;8256;56.144;13.394;2022-11-13T09:15:30;1.25;;;0.30;;
16296;SDS011;8256;56.144;13.394;2022-11-13T09:18:16;1.13;;;0.30;;
16296;SDS011;8256;56.144;13.394;2022-11-13T09:21:02;1.20;;;0.43;;
16296;SDS011;8256;56.144;13.394;2022-11-13T09:23:48;1.00;;;0.20;;
16296;SDS011;8256;56.144;13.394;2022-11-13T09:26:34;1.20;;;0.40;;
16296;SDS011;8256;56.144;13.394;2022-11-13T09:29:20;1.85;;;0.68;;
16296;SDS011;8256;56.144;13.394;2022-11-13T09:32:07;2.67;;;0.57;;
16296;SDS011;8256;56.144;13.394;2022-11-13T09:34:53;1.73;;;0.77;;
16296;SDS011;8256;56.144;13.394;2022-11-13T09:37:39;1.20;;;0.50;;
16296;SDS011;8256;56.144;13.394;2022-11-13T09:40:27;2.10;;;0.45;;
16296;SDS011;8256;56.144;13.394;2022-11-13T09:49:27;1.48;;;0.45;;
16296;SDS011;8256;56.144;13.394;2022-11-13T09:52:17;1.88;;;0.57;;
16296;SDS011;8256;56.144;13.394;2022-11-13T09:55:18;1.27;;;0.38;;
16296;SDS011;8256;56.144;13.394;2022-11-13T09:58:28;0.95;;;0.30;;
16296;SDS011;8256;56.144;13.394;2022-11-13T10:01:27;1.20;;;0.17;;
16296;SDS011;8256;56.144;13.394;2022-11-13T10:04:20;0.52;;;0.10;;
16296;SDS011;8256;56.144;13.394;2022-11-13T10:10:41;0.55;;;0.10;;
16296;SDS011;8256;56.144;13.394;2022-11-13T10:13:44;0.60;;;0.10;;
16296;SDS011;8256;56.144;13.394;2022-11-13T10:25:19;0.40;;;0.10;;
16296;SDS011;8256;56.144;13.394;2022-11-13T10:28:11;0.50;;;0.10;;
16296;SDS011;8256;56.144;13.394;2022-11-13T10:30:59;0.60;;;0.10;;
16296;SDS011;8256;56.144;13.394;2022-11-13T10:33:44;0.50;;;0.10;;
16296;SDS011;8256;56.144;13.394;2022-11-13T10:39:18;0.60;;;0.10;;
16296;SDS011;8256;56.144;13.394;2022-11-13T10:42:04;1.08;;;0.38;;
16296;SDS011;8256;56.144;13.394;2022-11-13T10:44:57;0.40;;;0.10;;
16296;SDS011;8256;56.144;13.394;2022-11-13T10:47:45;0.47;;;0.10;;
16296;SDS011;8256;56.144;13.394;2022-11-13T10:50:32;0.45;;;0.10;;
16296;SDS011;8256;56.144;13.394;2022-11-13T10:53:18;0.43;;;0.10;;
16296;SDS011;8256;56.144;13.394;2022-11-13T11:02:06;0.43;;;0.10;;
16296;SDS011;8256;56.144;13.394;2022-11-13T11:08:12;0.50;;;0.10;;
16296;SDS011;8256;56.144;13.394;2022-11-13T11:10:59;1.30;;;0.20;;
16296;SDS011;8256;56.144;13.394;2022-11-13T11:14:19;0.80;;;0.10;;
16296;SDS011;8256;56.144;13.394;2022-11-13T11:17:06;0.47;;;0.10;;
16296;SDS011;8256;56.144;13.394;2022-11-13T11:20:15;0.45;;;0.10;;
16296;SDS011;8256;56.144;13.394;2022-11-13T11:23:17;0.50;;;0.10;;
16296;SDS011;8256;56.144;13.394;2022-11-13T11:26:12;0.80;;;0.28;;
16296;SDS011;8256;56.144;13.394;2022-11-13T11:29:17;0.73;;;0.20;;
16296;SDS011;8256;56.144;13.394;2022-11-13T11:32:08;0.75;;;0.17;;
16296;SDS011;8256;56.144;13.394;2022-11-13T11:35:16;0.88;;;0.22;;
16296;SDS011;8256;56.144;13.394;2022-11-13T11:38:24;0.60;;;0.10;;
16296;SDS011;8256;56.144;13.394;2022-11-13T11:41:12;0.68;;;0.10;;
16296;SDS011;8256;56.144;13.394;2022-11-13T11:44:11;0.40;;;0.10;;
16296;SDS011;8256;56.144;13.394;2022-11-13T11:47:00;0.63;;;0.10;;
16296;SDS011;8256;56.144;13.394;2022-11-13T11:49:45;0.90;;;0.40;;
16296;SDS011;8256;56.144;13.394;2022-11-13T11:55:35;0.80;;;0.22;;
16296;SDS011;8256;56.144;13.394;2022-11-13T11:58:40;0.50;;;0.10;;
16296;SDS011;8256;56.144;13.394;2022-11-13T12:05:34;0.60;;;0.20;;
16296;SDS011;8256;56.144;13.394;2022-11-13T12:08:29;0.50;;;0.10;;
16296;SDS011;8256;56.144;13.394;2022-11-13T12:11:40;0.70;;;0.20;;
16296;SDS011;8256;56.144;13.394;2022-11-13T12:14:45;0.70;;;0.20;;
16296;SDS011;8256;56.144;13.394;2022-11-13T12:24:16;0.70;;;0.10;;
16296;SDS011;8256;56.144;13.394;2022-11-13T12:27:17;0.95;;;0.20;;
16296;SDS011;8256;56.144;13.394;2022-11-13T12:30:15;0.50;;;0.10;;
16296;SDS011;8256;56.144;13.394;2022-11-13T12:36:19;0.50;;;0.10;;
16296;SDS011;8256;56.144;13.394;2022-11-13T12:39:19;0.70;;;0.10;;
16296;SDS011;8256;56.144;13.394;2022-11-13T12:42:15;2.25;;;0.20;;
16296;SDS011;8256;56.144;13.394;2022-11-13T12:45:43;0.80;;;0.20;;
16296;SDS011;8256;56.144;13.394;2022-11-13T12:51:40;0.50;;;0.10;;
16296;SDS011;8256;56.144;13.394;2022-11-13T12:54:33;0.40;;;0.10;;
16296;SDS011;8256;56.144;13.394;2022-11-13T12:57:21;0.85;;;0.20;;
16296;SDS011;8256;56.144;13.394;2022-11-13T13:00:24;1.40;;;0.30;;
16296;SDS011;8256;56.144;13.394;2022-11-13T13:06:36;0.57;;;0.10;;
16296;SDS011;8256;56.144;13.394;2022-11-13T13:09:31;0.95;;;0.30;;
16296;SDS011;8256;56.144;13.394;2022-11-13T13:15:37;0.63;;;0.10;;
16296;SDS011;8256;56.144;13.394;2022-11-13T13:18:31;0.60;;;0.10;;
16296;SDS011;8256;56.144;13.394;2022-11-13T13:21:19;0.50;;;0.10;;
16296;SDS011;8256;56.144;13.394;2022-11-13T13:24:06;0.50;;;0.10;;
16296;SDS011;8256;56.144;13.394;2022-11-13T13:26:54;0.55;;;0.10;;
16296;SDS011;8256;56.144;13.394;2022-11-13T13:29:40;0.60;;;0.13;;
16296;SDS011;8256;56.144;13.394;2022-11-13T13:35:28;0.80;;;0.10;;
16296;SDS011;8256;56.144;13.394;2022-11-13T13:38:23;1.00;;;0.28;;
16296;SDS011;8256;56.144;13.394;2022-11-13T13:44:43;0.70;;;0.20;;
16296;SDS011;8256;56.144;13.394;2022-11-13T13:47:38;1.00;;;0.22;;
16296;SDS011;8256;56.144;13.394;2022-11-13T13:50:32;0.57;;;0.17;;
16296;SDS011;8256;56.144;13.394;2022-11-13T13:53:21;0.98;;;0.20;;
16296;SDS011;8256;56.144;13.394;2022-11-13T13:56:10;0.95;;;0.25;;
16296;SDS011;8256;56.144;13.394;2022-11-13T13:58:56;0.90;;;0.20;;
16296;SDS011;8256;56.144;13.394;2022-11-13T14:01:51;1.02;;;0.20;;
16296;SDS011;8256;56.144;13.394;2022-11-13T14:04:46;0.82;;;0.20;;
16296;SDS011;8256;56.144;13.394;2022-11-13T14:07:33;0.90;;;0.30;;
16296;SDS011;8256;56.144;13.394;2022-11-13T14:10:21;0.82;;;0.13;;
16296;SDS011;8256;56.144;13.394;2022-11-13T14:13:12;0.93;;;0.20;;
16296;SDS011;8256;56.144;13.394;2022-11-13T14:16:03;0.85;;;0.20;;
16296;SDS011;8256;56.144;13.394;2022-11-13T14:18:50;0.60;;;0.10;;
16296;SDS011;8256;56.144;13.394;2022-11-13T14:21:36;0.40;;;0.10;;
16296;SDS011;8256;56.144;13.394;2022-11-13T14:24:23;0.40;;;0.10;;
16296;SDS011;8256;56.144;13.394;2022-11-13T14:27:13;0.50;;;0.10;;
16296;SDS011;8256;56.144;13.394;2022-11-13T14:30:02;0.50;;;0.10;;
16296;SDS011;8256;56.144;13.394;2022-11-13T14:32:48;0.60;;;0.10;;
16296;SDS011;8256;56.144;13.394;2022-11-13T14:35:34;0.63;;;0.20;;
16296;SDS011;8256;56.144;13.394;2022-11-13T14:38:27;0.80;;;0.20;;
16296;SDS011;8256;56.144;13.394;2022-11-13T14:41:20;0.60;;;0.10;;
16296;SDS011;8256;56.144;13.394;2022-11-13T14:44:09;0.63;;;0.20;;
16296;SDS011;8256;56.144;13.394;2022-11-13T14:47:00;0.85;;;0.20;;
16296;SDS011;8256;56.144;13.394;2022-11-13T14:49:48;0.70;;;0.17;;
16296;SDS011;8256;56.144;13.394;2022-11-13T14:52:34;0.60;;;0.10;;
16296;SDS011;8256;56.144;13.394;2022-11-13T14:55:21;0.40;;;0.10;;
16296;SDS011;8256;56.144;13.394;2022-11-13T14:58:12;0.75;;;0.30;;
16296;SDS011;8256;56.144;13.394;2022-11-13T15:01:10;2.15;;;0.25;;
16296;SDS011;8256;56.144;13.394;2022-11-13T15:03:58;0.40;;;0.10;;
16296;SDS011;8256;56.144;13.394;2022-11-13T15:06:44;0.50;;;0.10;;
16296;SDS011;8256;56.144;13.394;2022-11-13T15:09:29;0.50;;;0.10;;
16296;SDS011;8256;56.144;13.394;2022-11-13T15:12:18;0.43;;;0.10;;
16296;SDS011;8256;56.144;13.394;2022-11-13T15:15:04;0.50;;;0.10;;
16296;SDS011;8256;56.144;13.394;2022-11-13T15:17:50;0.40;;;0.10;;
16296;SDS011;8256;56.144;13.394;2022-11-13T15:20:36;0.57;;;0.13;;
16296;SDS011;8256;56.144;13.394;2022-11-13T15:23:22;0.60;;;0.10;;
16296;SDS011;8256;56.144;13.394;2022-11-13T15:26:10;0.40;;;0.10;;
16296;SDS011;8256;56.144;13.394;2022-11-13T15:28:56;0.50;;;0.10;;
16296;SDS011;8256;56.144;13.394;2022-11-13T15:31:42;0.45;;;0.10;;
16296;SDS011;8256;56.144;13.394;2022-11-13T15:34:29;0.60;;;0.10;;
16296;SDS011;8256;56.144;13.394;2022-11-13T15:37:15;0.60;;;0.10;;
16296;SDS011;8256;56.144;13.394;2022-11-13T15:40:01;0.40;;;0.10;;
16296;SDS011;8256;56.144;13.394;2022-11-13T15:42:47;0.82;;;0.20;;
16296;SDS011;8256;56.144;13.394;2022-11-13T15:45:33;0.38;;;0.10;;
16296;SDS011;8256;56.144;13.394;2022-11-13T15:48:19;0.43;;;0.10;;
16296;SDS011;8256;56.144;13.394;2022-11-13T15:51:04;0.60;;;0.20;;
16296;SDS011;8256;56.144;13.394;2022-11-13T15:53:52;0.40;;;0.10;;
16296;SDS011;8256;56.144;13.394;2022-11-13T15:56:39;0.40;;;0.10;;
16296;SDS011;8256;56.144;13.394;2022-11-13T15:59:25;0.45;;;0.10;;
16296;SDS011;8256;56.144;13.394;2022-11-13T16:02:10;0.55;;;0.10;;
16296;SDS011;8256;56.144;13.394;2022-11-13T16:04:56;0.30;;;0.10;;
16296;SDS011;8256;56.144;13.394;2022-11-13T16:07:42;0.30;;;0.00;;
16296;SDS011;8256;56.144;13.394;2022-11-13T16:10:28;0.70;;;0.20;;
16296;SDS011;8256;56.144;13.394;2022-11-13T16:13:13;0.40;;;0.10;;
16296;SDS011;8256;56.144;13.394;2022-11-13T16:15:59;0.40;;;0.10;;
16296;SDS011;8256;56.144;13.394;2022-11-13T16:18:45;0.63;;;0.10;;
16296;SDS011;8256;56.144;13.394;2022-11-13T16:21:31;0.40;;;0.10;;
16296;SDS011;8256;56.144;13.394;2022-11-13T16:24:16;0.40;;;0.10;;
16296;SDS011;8256;56.144;13.394;2022-11-13T16:27:02;0.63;;;0.10;;
16296;SDS011;8256;56.144;13.394;2022-11-13T16:29:49;0.82;;;0.20;;
16296;SDS011;8256;56.144;13.394;2022-11-13T16:32:34;0.30;;;0.00;;
16296;SDS011;8256;56.144;13.394;2022-11-13T16:35:20;0.60;;;0.10;;
16296;SDS011;8256;56.144;13.394;2022-11-13T16:38:09;0.40;;;0.10;;
16296;SDS011;8256;56.144;13.394;2022-11-13T16:40:57;0.60;;;0.10;;
16296;SDS011;8256;56.144;13.394;2022-11-13T16:43:43;0.40;;;0.10;;
16296;SDS011;8256;56.144;13.394;2022-11-13T16:46:29;0.80;;;0.20;;
16296;SDS011;8256;56.144;13.394;2022-11-13T16:49:16;0.85;;;0.20;;
16296;SDS011;8256;56.144;13.394;2022-11-13T16:52:04;0.40;;;0.10;;
16296;SDS011;8256;56.144;13.394;2022-11-13T16:54:50;0.45;;;0.10;;
16296;SDS011;8256;56.144;13.394;2022-11-13T16:57:36;0.73;;;0.20;;
16296;SDS011;8256;56.144;13.394;2022-11-13T17:00:21;0.57;;;0.10;;
16296;SDS011;8256;56.144;13.394;2022-11-13T17:03:12;0.95;;;0.30;;
16296;SDS011;8256;56.144;13.394;2022-11-13T17:05:57;0.63;;;0.17;;
16296;SDS011;8256;56.144;13.394;2022-11-13T17:08:43;0.52;;;0.10;;
16296;SDS011;8256;56.144;13.394;2022-11-13T17:11:29;0.80;;;0.20;;
16296;SDS011;8256;56.144;13.394;2022-11-13T17:14:16;0.60;;;0.10;;
16296;SDS011;8256;56.144;13.394;2022-11-13T17:17:09;0.50;;;0.10;;
16296;SDS011;8256;56.144;13.394;2022-11-13T17:19:56;0.90;;;0.10;;
16296;SDS011;8256;56.144;13.394;2022-11-13T17:22:42;0.40;;;0.10;;
16296;SDS011;8256;56.144;13.394;2022-11-13T17:25:32;1.00;;;0.28;;
16296;SDS011;8256;56.144;13.394;2022-11-13T17:28:18;0.67;;;0.10;;
16296;SDS011;8256;56.144;13.394;2022-11-13T17:31:04;0.68;;;0.10;;
16296;SDS011;8256;56.144;13.394;2022-11-13T17:33:52;0.95;;;0.20;;
16296;SDS011;8256;56.144;13.394;2022-11-13T17:36:38;0.60;;;0.10;;
16296;SDS011;8256;56.144;13.394;2022-11-13T17:39:24;0.63;;;0.10;;
16296;SDS011;8256;56.144;13.394;2022-11-13T17:42:10;0.63;;;0.10;;
16296;SDS011;8256;56.144;13.394;2022-11-13T17:44:55;0.75;;;0.13;;
16296;SDS011;8256;56.144;13.394;2022-11-13T17:47:41;1.50;;;0.55;;
16296;SDS011;8256;56.144;13.394;2022-11-13T17:50:27;1.15;;;0.30;;
16296;SDS011;8256;56.144;13.394;2022-11-13T17:53:13;1.60;;;0.40;;
16296;SDS011;8256;56.144;13.394;2022-11-13T17:55:59;1.13;;;0.30;;
16296;SDS011;8256;56.144;13.394;2022-11-13T17:58:46;0.75;;;0.20;;